year,month,day,hours (UTC+2),minutes,seconds,INP/L,error_neg,error_pos,Lamina temperature (C),Relative humidity with respect to water (%)
2018,3,22,16,16,30,0.06,0.01,0.68,-29,105
2018,3,22,16,35,30,0.31,0.24,0.58,-29,105
2018,3,22,16,54,30,1.73,0.65,0.65,-29,105
2018,3,22,17,13,30,3.34,1.04,1.04,-29,105
2018,3,22,17,32,30,2.6,0.77,0.77,-29,105
2018,3,22,17,51,30,2.09,0.86,0.86,-29,105
2018,3,22,18,10,30,1.07,0.46,0.46,-29,105
2018,3,22,18,31,30,2,0.78,0.78,-29,105
2018,3,22,18,50,30,1,0.43,0.43,-29,105
2018,3,22,19,9,30,0.93,0.88,0.88,-29,105
2018,3,22,19,28,30,1.03,0.96,1.58,-29,105
2018,3,22,19,47,30,2.61,2.54,3.12,-29,105
2018,3,22,20,6,30,1.06,0.99,1.63,-29,105
2018,3,22,20,25,30,5.3,4.59,4.59,-29,105
2018,3,22,20,44,30,0.49,0.41,5.44,-29,105
2018,3,22,21,3,30,1.8,1.73,6.73,-29,105
2018,3,28,10,34,30,0.89,0.67,0.67,-31,105
2018,3,28,10,53,30,0.57,0.5,1.06,-31,105
2018,3,28,11,12,30,2.94,1.55,1.55,-31,105
2018,3,28,11,31,30,3.46,1.29,1.29,-31,105
2018,3,28,11,50,30,2.63,1.11,1.11,-31,105
2018,3,28,12,9,30,1.84,0.99,0.99,-31,105
2018,3,28,12,28,30,1.74,1.43,1.43,-31,105
2018,3,28,12,47,30,1.23,1.16,1.25,-31,105
2018,3,28,13,6,30,-0.56,0.63,1.7,-31,105
2018,3,28,13,25,30,-2.59,2.66,1.65,-31,105
2018,3,28,16,39,30,-0.95,1.02,3.14,-31,105
2018,3,28,16,57,30,1.24,1.17,1.77,-31,105
2018,3,28,17,16,30,-0.17,0.24,1.2,-31,105
2018,3,28,17,35,30,1.23,1.08,1.08,-31,105
2018,3,28,17,54,30,6.81,6.74,11.87,-31,105
2018,3,28,18,13,30,0.44,0.36,0.36,-31,105
2018,3,28,18,32,30,0.39,0.31,0.39,-31,105
2018,3,28,18,51,30,0.31,0.24,0.44,-31,105
2018,3,28,19,10,30,-0.23,0.3,0.46,-31,105
2018,3,28,19,29,30,0.29,0.21,1.17,-31,105
2018,3,28,19,48,30,1.25,1.18,1.71,-31,105
